createdAt,value
2018-05-08T00:01:19.133Z,35.15
2018-05-08T00:03:48.261Z,35.11
2018-05-08T00:06:18.327Z,34.98
2018-05-08T00:08:47.693Z,35.05
2018-05-08T00:11:17.270Z,35.05
2018-05-08T00:13:46.770Z,35.08
2018-05-08T00:16:15.886Z,35.11
2018-05-08T00:18:44.706Z,35.11
2018-05-08T00:21:14.885Z,35.18
2018-05-08T00:23:44.250Z,35.13
2018-05-08T00:26:13.801Z,35.11
2018-05-08T00:28:43.405Z,35.07
2018-05-08T00:31:13.211Z,35.09
2018-05-08T00:33:43.391Z,35.08
2018-05-08T00:36:12.553Z,34.94
2018-05-08T00:38:41.429Z,34.87
2018-05-08T00:41:10.799Z,34.87
2018-05-08T00:43:39.890Z,34.77
2018-05-08T00:46:08.645Z,34.77
2018-05-08T00:48:37.635Z,34.77
2018-05-08T00:51:07.947Z,34.83
2018-05-08T00:53:36.916Z,34.74
2018-05-08T00:56:06.277Z,34.76
2018-05-08T00:58:35.097Z,34.88
2018-05-08T01:01:04.291Z,34.84
2018-05-08T01:03:33.471Z,34.90
2018-05-08T01:06:02.351Z,34.92
2018-05-08T01:08:31.160Z,34.92
2018-05-08T01:11:00.637Z,34.94
2018-05-08T01:13:30.718Z,34.91
2018-05-08T01:16:00.447Z,34.81
2018-05-08T01:18:30.160Z,34.84
2018-05-08T01:20:59.540Z,34.82
2018-05-08T01:23:28.823Z,34.67
2018-05-08T01:25:57.554Z,34.67
2018-05-08T01:28:26.571Z,34.60
2018-05-08T01:30:55.458Z,34.68
2018-05-08T01:33:24.674Z,34.56
2018-05-08T01:35:53.736Z,34.56
2018-05-08T01:38:22.510Z,34.53
2018-05-08T01:40:51.292Z,34.44
2018-05-08T01:43:21.007Z,34.46
2018-05-08T01:45:50.601Z,34.43
2018-05-08T01:48:19.236Z,34.43
2018-05-08T01:50:48.615Z,34.44
2018-05-08T01:53:18.495Z,34.32
2018-05-08T01:55:47.725Z,34.32
2018-05-08T01:58:17.138Z,34.38
2018-05-08T02:00:46.724Z,34.42
2018-05-08T02:03:16.217Z,34.39
2018-05-08T02:05:45.616Z,34.42
2018-05-08T02:08:14.898Z,34.39
2018-05-08T02:10:44.039Z,34.42
2018-05-08T02:13:13.045Z,34.41
2018-05-08T02:15:41.908Z,34.33
2018-05-08T02:18:11.053Z,34.44
2018-05-08T02:20:40.396Z,34.33
2018-05-08T02:23:09.497Z,34.40
2018-05-08T02:25:38.711Z,34.43
2018-05-08T02:28:08.520Z,34.35
2018-05-08T02:30:38.158Z,34.30
2018-05-08T02:33:07.507Z,34.41
2018-05-08T02:35:36.728Z,34.43
2018-05-08T02:38:05.955Z,34.52
2018-05-08T02:40:34.957Z,34.29
2018-05-08T02:43:04.911Z,34.40
2018-05-08T02:45:34.220Z,34.42
2018-05-08T02:48:03.892Z,34.33
2018-05-08T02:50:33.041Z,34.40
2018-05-08T02:53:02.811Z,34.44
2018-05-08T02:55:33.013Z,34.52
2018-05-08T02:58:02.095Z,34.42
2018-05-08T03:00:31.112Z,34.43
2018-05-08T03:03:00.637Z,34.48
2018-05-08T03:05:30.053Z,34.13
2018-05-08T03:07:59.314Z,34.10
2018-05-08T03:10:28.576Z,34.09
2018-05-08T03:12:58.532Z,34.22
2018-05-08T03:15:27.302Z,34.05
2018-05-08T03:17:56.528Z,34.17
2018-05-08T03:20:25.432Z,34.19
2018-05-08T03:22:54.349Z,34.28
2018-05-08T03:25:23.682Z,34.32
2018-05-08T03:27:53.424Z,34.36
2018-05-08T03:30:22.730Z,34.38
2018-05-08T03:32:51.804Z,34.44
2018-05-08T03:35:22.206Z,34.44
2018-05-08T03:37:51.472Z,34.45
2018-05-08T03:40:20.489Z,34.43
2018-05-08T03:42:49.759Z,34.48
2018-05-08T03:45:18.864Z,34.46
2018-05-08T03:47:48.715Z,34.48
2018-05-08T03:50:18.387Z,34.48
2018-05-08T03:52:47.773Z,34.44
2018-05-08T03:55:16.626Z,34.47
2018-05-08T03:57:46.038Z,34.49
2018-05-08T04:00:26.780Z,34.48
2018-05-08T04:03:07.769Z,34.49
2018-05-08T04:05:49.072Z,34.52
2018-05-08T04:08:39.317Z,34.45
2018-05-08T04:11:09.024Z,34.48
2018-05-08T04:13:38.795Z,34.49
2018-05-08T04:16:07.846Z,34.41
2018-05-08T04:18:36.867Z,34.29
2018-05-08T04:21:05.563Z,34.26
2018-05-08T04:23:34.949Z,34.35
2018-05-08T04:26:04.395Z,34.34
2018-05-08T04:28:34.086Z,34.40
2018-05-08T04:31:03.191Z,34.41
2018-05-08T04:33:32.448Z,34.35
2018-05-08T04:36:01.534Z,34.30
2018-05-08T04:38:30.450Z,34.38
2018-05-08T04:41:00.029Z,34.41
2018-05-08T04:43:29.500Z,34.43
2018-05-08T04:45:59.386Z,34.44
2018-05-08T04:48:28.705Z,34.47
2018-05-08T04:50:58.283Z,34.48
2018-05-08T04:53:28.010Z,34.51
2018-05-08T04:55:57.984Z,34.51
2018-05-08T04:58:28.935Z,34.54
2018-05-08T05:00:57.970Z,34.56
2018-05-08T05:03:27.065Z,34.44
2018-05-08T05:05:56.073Z,34.53
2018-05-08T05:08:25.724Z,34.57
2018-05-08T05:10:54.917Z,34.64
2018-05-08T05:13:24.450Z,34.68
2018-05-08T05:15:53.706Z,34.75
2018-05-08T05:18:22.874Z,34.81
2018-05-08T05:20:52.120Z,34.77
2018-05-08T05:23:21.955Z,34.72
2018-05-08T05:25:51.217Z,34.69
2018-05-08T05:28:20.674Z,34.70
2018-05-08T05:30:49.835Z,34.70
2018-05-08T05:33:19.127Z,34.68
2018-05-08T05:35:48.722Z,34.68
2018-05-08T05:38:17.880Z,34.30
2018-05-08T05:40:46.825Z,33.74
2018-05-08T05:43:15.986Z,33.49
2018-05-08T05:45:45.152Z,33.80
2018-05-08T05:48:14.287Z,33.95
2018-05-08T05:50:43.292Z,33.86
2018-05-08T05:53:12.929Z,34.07
2018-05-08T05:55:41.993Z,34.26
2018-05-08T05:58:10.610Z,34.42
2018-05-08T06:00:42.937Z,34.53
2018-05-08T06:03:12.366Z,34.64
2018-05-08T06:05:41.460Z,34.65
2018-05-08T06:08:10.367Z,34.73
2018-05-08T06:10:40.062Z,34.51
2018-05-08T06:13:09.519Z,34.00
2018-05-08T06:15:39.362Z,33.88
2018-05-08T06:18:08.721Z,33.80
2018-05-08T06:20:37.708Z,34.06
2018-05-08T06:23:06.484Z,34.38
2018-05-08T06:25:35.405Z,34.53
2018-05-08T06:28:05.119Z,34.61
2018-05-08T06:30:34.499Z,34.67
2018-05-08T06:33:02.936Z,34.67
2018-05-08T06:35:31.799Z,34.76
2018-05-08T06:38:00.846Z,34.78
2018-05-08T06:40:30.176Z,34.78
2018-05-08T06:42:59.386Z,34.84
2018-05-08T06:45:28.776Z,34.85
2018-05-08T06:47:58.364Z,34.84
2018-05-08T06:50:27.296Z,34.85
2018-05-08T06:52:57.512Z,34.80
2018-05-08T06:55:26.602Z,34.84
2018-05-08T06:57:55.931Z,34.88
2018-05-08T07:00:25.329Z,34.92
2018-05-08T07:02:54.409Z,34.94
2018-05-08T07:05:23.564Z,34.97
2018-05-08T07:07:52.347Z,34.94
2018-05-08T07:10:21.199Z,34.95
2018-05-08T07:12:49.817Z,34.98
2018-05-08T07:15:19.201Z,34.99
2018-05-08T07:17:47.913Z,34.98
2018-05-08T07:20:16.964Z,34.96
2018-05-08T07:22:46.680Z,34.65
2018-05-08T07:25:16.396Z,34.88
2018-05-08T07:27:45.169Z,34.98
2018-05-08T07:30:15.005Z,35.02
2018-05-08T07:32:44.379Z,35.03
2018-05-08T07:35:13.341Z,35.07
2018-05-08T07:37:42.583Z,35.05
2018-05-08T07:40:11.391Z,35.08
2018-05-08T07:42:40.930Z,35.11
2018-05-08T07:45:10.212Z,35.13
2018-05-08T07:47:39.757Z,35.15
2018-05-08T07:50:08.877Z,35.17
2018-05-08T07:52:38.373Z,35.14
2018-05-08T07:55:09.166Z,35.14
2018-05-08T07:57:37.990Z,35.16
2018-05-08T08:00:06.918Z,35.13
2018-05-08T08:02:36.452Z,35.15
2018-05-08T08:05:05.668Z,35.14
2018-05-08T08:07:35.266Z,35.16
2018-05-08T08:10:04.539Z,35.16
2018-05-08T08:12:33.985Z,35.16
2018-05-08T08:15:02.941Z,35.16
2018-05-08T08:17:31.936Z,35.18
2018-05-08T08:20:01.424Z,35.21
2018-05-08T08:22:30.599Z,35.22
2018-05-08T08:24:59.718Z,35.23
2018-05-08T08:27:28.886Z,35.23
2018-05-08T08:29:58.162Z,35.25
2018-05-08T08:32:27.012Z,35.27
2018-05-08T08:34:56.307Z,35.33
2018-05-08T08:37:25.616Z,35.32
2018-05-08T08:39:54.475Z,35.33
2018-05-08T08:42:23.055Z,35.36
2018-05-08T08:44:52.194Z,35.39
2018-05-08T08:47:22.359Z,35.34
2018-05-08T08:49:51.743Z,35.37
2018-05-08T08:52:21.466Z,35.37
2018-05-08T08:54:51.077Z,35.41
2018-05-08T08:57:20.735Z,35.43
2018-05-08T08:59:49.950Z,35.47
2018-05-08T09:02:19.488Z,35.50
2018-05-08T09:04:48.674Z,35.52
2018-05-08T09:07:18.457Z,35.51
2018-05-08T09:09:47.921Z,35.38
2018-05-08T09:12:17.582Z,35.49
2018-05-08T09:14:47.366Z,35.53
2018-05-08T09:17:16.183Z,35.58
2018-05-08T09:19:45.248Z,35.54
2018-05-08T09:22:13.947Z,35.52
2018-05-08T09:24:42.674Z,35.50
2018-05-08T09:27:11.979Z,35.47
2018-05-08T09:29:41.253Z,35.49
2018-05-08T09:32:10.298Z,35.49
2018-05-08T09:34:39.208Z,35.51
2018-05-08T09:37:08.698Z,35.54
2018-05-08T09:39:37.561Z,35.54
2018-05-08T09:42:07.301Z,35.54
2018-05-08T09:44:36.618Z,35.54
2018-05-08T09:47:05.626Z,35.57
2018-05-08T09:49:35.500Z,35.66
2018-05-08T09:52:05.115Z,35.64
2018-05-08T09:54:34.090Z,35.64
2018-05-08T09:57:02.788Z,35.68
2018-05-08T09:59:33.296Z,35.68
2018-05-08T10:02:02.404Z,35.71
2018-05-08T10:04:31.724Z,35.75
2018-05-08T10:07:01.082Z,35.76
2018-05-08T10:09:30.022Z,35.78
2018-05-08T10:11:58.854Z,35.70
2018-05-08T10:14:28.224Z,35.73
2018-05-08T10:16:58.228Z,35.73
2018-05-08T10:19:27.335Z,35.73
2018-05-08T10:21:56.371Z,35.71
2018-05-08T10:24:25.689Z,35.74
2018-05-08T10:26:55.002Z,35.76
2018-05-08T10:29:24.368Z,35.83
2018-05-08T10:31:53.227Z,35.79
2018-05-08T10:34:22.627Z,35.83
2018-05-08T10:36:52.051Z,35.85
2018-05-08T10:39:21.995Z,35.85
2018-05-08T10:41:51.946Z,35.87
2018-05-08T10:44:21.183Z,35.95
2018-05-08T10:46:50.612Z,36.02
2018-05-08T10:49:20.365Z,36.01
2018-05-08T10:51:49.539Z,36.05
2018-05-08T10:54:19.637Z,36.09
2018-05-08T10:56:49.100Z,36.08
2018-05-08T10:59:18.636Z,36.04
2018-05-08T11:01:49.806Z,36.12
2018-05-08T11:04:19.258Z,36.08
2018-05-08T11:06:48.092Z,36.06
2018-05-08T11:09:17.224Z,36.08
2018-05-08T11:11:46.665Z,36.08
2018-05-08T11:14:15.979Z,36.07
2018-05-08T11:16:45.221Z,36.08
2018-05-08T11:19:14.565Z,36.06
2018-05-08T11:21:43.503Z,36.11
2018-05-08T11:24:13.086Z,36.15
2018-05-08T11:26:42.182Z,36.18
2018-05-08T11:29:12.146Z,36.17
2018-05-08T11:31:41.004Z,36.22
2018-05-08T11:34:10.517Z,36.16
2018-05-08T11:36:40.258Z,36.22
2018-05-08T11:39:09.883Z,36.24
2018-05-08T11:41:39.128Z,36.26
2018-05-08T11:44:07.886Z,36.26
2018-05-08T11:46:37.202Z,36.28
2018-05-08T11:49:06.388Z,35.97
2018-05-08T11:51:35.995Z,36.01
2018-05-08T11:54:04.872Z,36.11
2018-05-08T11:56:34.561Z,36.12
2018-05-08T11:59:03.786Z,36.12
2018-05-08T12:01:33.379Z,36.11
2018-05-08T12:04:03.719Z,36.17
2018-05-08T12:06:32.933Z,36.07
2018-05-08T12:09:02.168Z,36.07
2018-05-08T12:11:30.998Z,36.13
2018-05-08T12:14:00.080Z,36.14
2018-05-08T12:16:29.369Z,36.14
2018-05-08T12:18:58.482Z,36.13
2018-05-08T12:21:27.855Z,36.16
2018-05-08T12:23:57.096Z,36.16
2018-05-08T12:26:25.713Z,36.17
2018-05-08T12:28:55.683Z,36.22
2018-05-08T12:31:25.350Z,36.22
2018-05-08T12:33:54.550Z,36.20
2018-05-08T12:36:23.467Z,36.17
2018-05-08T12:38:53.135Z,36.09
2018-05-08T12:41:22.306Z,36.12
2018-05-08T12:43:52.383Z,36.12
2018-05-08T12:46:21.474Z,36.10
2018-05-08T12:48:50.350Z,36.06
2018-05-08T12:51:19.382Z,36.06
2018-05-08T12:53:48.976Z,36.07
2018-05-08T12:56:17.467Z,36.07
2018-05-08T12:58:46.978Z,35.97
2018-05-08T13:01:16.198Z,35.96
2018-05-08T13:03:45.145Z,36.05
2018-05-08T13:06:15.740Z,36.04
2018-05-08T13:08:44.760Z,36.05
2018-05-08T13:11:14.168Z,36.04
2018-05-08T13:13:43.608Z,36.06
2018-05-08T13:16:12.758Z,36.09
2018-05-08T13:18:41.397Z,36.02
2018-05-08T13:21:10.886Z,36.03
2018-05-08T13:23:40.655Z,36.06
2018-05-08T13:26:10.510Z,36.06
2018-05-08T13:28:39.668Z,36.08
2018-05-08T13:31:08.668Z,36.11
2018-05-08T13:33:37.495Z,36.10
2018-05-08T13:36:06.622Z,36.03
2018-05-08T13:38:36.135Z,36.00
2018-05-08T13:41:05.311Z,35.98
2018-05-08T13:43:35.160Z,35.97
2018-05-08T13:46:04.361Z,35.99
2018-05-08T13:48:33.500Z,35.87
2018-05-08T13:51:02.812Z,35.85
2018-05-08T13:53:32.267Z,35.86
2018-05-08T13:56:01.479Z,35.90
2018-05-08T13:58:31.584Z,35.89
2018-05-08T14:01:00.916Z,35.83
2018-05-08T14:03:30.861Z,35.85
2018-05-08T14:06:00.479Z,35.86
2018-05-08T14:08:30.803Z,35.84
2018-05-08T14:10:59.488Z,35.79
2018-05-08T14:13:29.263Z,35.74
2018-05-08T14:15:58.291Z,35.79
2018-05-08T14:18:27.135Z,35.77
2018-05-08T14:20:56.647Z,35.76
2018-05-08T14:23:26.949Z,35.74
2018-05-08T14:25:55.777Z,35.76
2018-05-08T14:28:25.548Z,35.77
2018-05-08T14:30:55.033Z,35.79
2018-05-08T14:33:24.588Z,35.81
2018-05-08T14:35:53.755Z,35.80
2018-05-08T14:38:23.033Z,35.83
2018-05-08T14:40:52.548Z,35.83
2018-05-08T14:43:22.433Z,35.82
2018-05-08T14:45:53.021Z,35.78
2018-05-08T14:48:22.026Z,35.78
2018-05-08T14:50:51.682Z,35.74
2018-05-08T14:53:21.324Z,35.75
2018-05-08T14:55:50.258Z,35.74
2018-05-08T14:58:19.341Z,35.74
2018-05-08T15:00:48.674Z,35.74
2018-05-08T15:03:17.176Z,35.72
2018-05-08T15:05:46.711Z,35.56
2018-05-08T15:08:15.832Z,35.66
2018-05-08T15:10:45.536Z,35.65
2018-05-08T15:13:14.992Z,35.71
2018-05-08T15:15:44.453Z,35.74
2018-05-08T15:18:13.939Z,35.73
2018-05-08T15:20:43.584Z,35.75
2018-05-08T15:23:12.973Z,35.81
2018-05-08T15:25:42.995Z,35.83
2018-05-08T15:28:12.406Z,35.84
2018-05-08T15:30:41.982Z,35.85
2018-05-08T15:33:10.831Z,35.87
2018-05-08T15:35:40.031Z,35.88
2018-05-08T15:38:09.641Z,35.89
2018-05-08T15:40:38.573Z,35.91
2018-05-08T15:43:07.436Z,35.91
2018-05-08T15:45:36.841Z,35.92
2018-05-08T15:48:05.943Z,35.90
2018-05-08T15:50:35.280Z,35.92
2018-05-08T15:53:04.320Z,35.87
2018-05-08T15:55:33.617Z,35.75
2018-05-08T15:58:02.881Z,35.80
2018-05-08T16:00:31.680Z,35.85
2018-05-08T16:03:01.065Z,35.90
2018-05-08T16:05:30.322Z,35.92
2018-05-08T16:07:59.746Z,35.93
2018-05-08T16:10:28.767Z,35.93
2018-05-08T16:12:58.912Z,35.93
2018-05-08T16:15:27.975Z,35.91
2018-05-08T16:17:57.247Z,35.90
2018-05-08T16:20:26.589Z,35.89
2018-05-08T16:22:56.453Z,35.91
2018-05-08T16:25:26.005Z,35.90
2018-05-08T16:27:55.189Z,35.90
2018-05-08T16:30:24.591Z,35.91
2018-05-08T16:32:53.497Z,35.92
2018-05-08T16:35:22.535Z,35.95
2018-05-08T16:37:51.786Z,35.94
2018-05-08T16:40:21.239Z,35.93
2018-05-08T16:42:51.780Z,35.94
2018-05-08T16:45:21.661Z,35.94
2018-05-08T16:47:50.598Z,35.89
2018-05-08T16:50:20.278Z,35.87
2018-05-08T16:52:49.472Z,35.89
2018-05-08T16:55:18.901Z,35.88
2018-05-08T16:57:47.951Z,35.84
2018-05-08T17:00:17.117Z,35.86
2018-05-08T17:02:46.448Z,35.85
2018-05-08T17:05:15.566Z,35.88
2018-05-08T17:07:44.445Z,35.74
2018-05-08T17:10:13.836Z,35.72
2018-05-08T17:12:42.873Z,35.66
2018-05-08T17:15:12.442Z,35.58
2018-05-08T17:17:42.353Z,35.61
2018-05-08T17:20:11.992Z,35.68
2018-05-08T17:22:40.912Z,35.74
2018-05-08T17:25:10.443Z,35.72
2018-05-08T17:27:39.326Z,35.72
2018-05-08T17:30:08.563Z,35.75
2018-05-08T17:32:37.906Z,35.73
2018-05-08T17:35:07.444Z,35.71
2018-05-08T17:37:36.417Z,35.73
2018-05-08T17:40:06.449Z,35.72
2018-05-08T17:42:35.879Z,35.73
2018-05-08T17:45:05.129Z,35.75
2018-05-08T17:47:34.957Z,35.77
2018-05-08T17:50:04.306Z,35.74
2018-05-08T17:52:33.644Z,35.74
2018-05-08T17:55:03.491Z,35.73
2018-05-08T17:57:32.613Z,35.71
2018-05-08T18:00:01.402Z,35.67
2018-05-08T18:02:30.502Z,35.68
2018-05-08T18:04:59.573Z,35.69
2018-05-08T18:07:29.097Z,35.66
2018-05-08T18:09:59.072Z,35.67
2018-05-08T18:12:28.968Z,35.64
2018-05-08T18:14:58.122Z,35.60
2018-05-08T18:17:27.643Z,35.65
2018-05-08T18:19:57.512Z,35.58
2018-05-08T18:22:27.176Z,35.20
2018-05-08T18:24:56.735Z,35.15
2018-05-08T18:27:26.319Z,35.34
2018-05-08T18:29:55.874Z,35.47
2018-05-08T18:32:25.385Z,35.49
2018-05-08T18:34:54.553Z,35.53
2018-05-08T18:37:23.499Z,35.44
2018-05-08T18:39:52.522Z,35.49
2018-05-08T18:42:21.637Z,35.48
2018-05-08T18:44:51.045Z,35.44
2018-05-08T18:47:20.340Z,35.49
2018-05-08T18:49:49.391Z,35.47
2018-05-08T18:52:18.849Z,35.45
2018-05-08T18:54:48.070Z,35.33
2018-05-08T18:57:16.927Z,35.30
2018-05-08T18:59:46.680Z,35.30
2018-05-08T19:02:15.832Z,35.33
2018-05-08T19:04:44.626Z,35.33
2018-05-08T19:07:13.763Z,35.34
2018-05-08T19:09:43.001Z,35.35
2018-05-08T19:12:11.951Z,35.33
2018-05-08T19:14:42.056Z,35.35
2018-05-08T19:17:11.529Z,35.36
2018-05-08T19:19:46.374Z,35.35
2018-05-08T19:22:15.239Z,35.37
2018-05-08T19:24:45.110Z,35.38
2018-05-08T19:27:14.196Z,35.37
2018-05-08T19:32:49.818Z,35.34
2018-05-08T19:35:24.402Z,35.35
2018-05-08T19:37:58.604Z,35.34
2018-05-08T19:40:27.839Z,35.34
2018-05-08T19:42:56.900Z,35.28
2018-05-08T19:45:25.785Z,35.27
2018-05-08T19:47:54.459Z,35.25
2018-05-08T19:50:23.709Z,35.22
2018-05-08T19:52:52.898Z,35.23
2018-05-08T19:55:21.953Z,35.14
2018-05-08T19:57:51.256Z,35.14
2018-05-08T20:00:20.473Z,35.10
2018-05-08T20:02:49.756Z,35.11
2018-05-08T20:05:18.799Z,35.17
2018-05-08T20:07:48.210Z,35.18
2018-05-08T20:10:17.528Z,35.15
2018-05-08T20:12:46.599Z,35.15
2018-05-08T20:15:16.434Z,35.18
2018-05-08T20:17:46.347Z,35.15
2018-05-08T20:20:16.814Z,35.18
2018-05-08T20:22:46.080Z,35.17
2018-05-08T20:25:14.785Z,35.17
2018-05-08T20:27:43.536Z,35.12
2018-05-08T20:30:13.537Z,35.14
2018-05-08T20:32:42.331Z,35.08
2018-05-08T20:35:12.352Z,35.11
2018-05-08T20:37:41.584Z,35.14
2018-05-08T20:40:10.524Z,35.05
2018-05-08T20:42:39.993Z,35.04
2018-05-08T20:45:09.001Z,35.05
2018-05-08T20:47:37.961Z,35.04
2018-05-08T20:50:07.038Z,35.05
2018-05-08T20:52:36.264Z,35.04
2018-05-08T20:55:05.554Z,35.02
2018-05-08T20:57:34.435Z,35.01
2018-05-08T21:00:03.115Z,35.03
2018-05-08T21:02:32.962Z,35.00
2018-05-08T21:05:02.287Z,35.01
2018-05-08T21:07:32.188Z,35.02
2018-05-08T21:10:01.496Z,35.00
2018-05-08T21:12:30.215Z,35.00
2018-05-08T21:14:59.190Z,34.97
2018-05-08T21:17:28.472Z,35.04
2018-05-08T21:19:57.898Z,34.99
2018-05-08T21:22:28.235Z,34.89
2018-05-08T21:24:58.445Z,34.88
2018-05-08T21:27:33.974Z,34.83
2018-05-08T21:30:08.462Z,34.86
2018-05-08T21:32:37.797Z,34.83
2018-05-08T21:35:07.365Z,34.80
2018-05-08T21:37:36.397Z,34.81
2018-05-08T21:40:05.609Z,34.82
2018-05-08T21:42:34.701Z,34.80
2018-05-08T21:45:03.392Z,34.82
2018-05-08T21:47:32.803Z,34.83
2018-05-08T21:50:01.626Z,34.80
2018-05-08T21:52:30.728Z,34.83
2018-05-08T21:55:00.405Z,34.84
2018-05-08T21:57:29.112Z,34.84
2018-05-08T21:59:58.333Z,34.85
2018-05-08T22:02:28.257Z,34.85
2018-05-08T22:04:57.348Z,34.81
2018-05-08T22:07:26.532Z,34.79
2018-05-08T22:09:56.745Z,34.78
2018-05-08T22:12:25.440Z,34.78
2018-05-08T22:14:54.215Z,34.71
2018-05-08T22:17:23.508Z,34.70
2018-05-08T22:19:53.169Z,34.67
2018-05-08T22:22:22.729Z,34.59
2018-05-08T22:24:52.837Z,34.59
2018-05-08T22:27:21.971Z,34.57
2018-05-08T22:29:51.097Z,34.57
2018-05-08T22:32:20.503Z,34.58
2018-05-08T22:34:49.969Z,34.63
2018-05-08T22:37:19.090Z,34.61
2018-05-08T22:39:48.059Z,34.62
2018-05-08T22:42:17.097Z,34.63
2018-05-08T22:44:46.496Z,34.65
2018-05-08T22:47:15.585Z,34.62
2018-05-08T22:49:44.721Z,34.62
2018-05-08T22:52:13.912Z,34.57
2018-05-08T22:54:42.895Z,34.55
2018-05-08T22:57:11.413Z,34.55
2018-05-08T22:59:40.392Z,34.54
2018-05-08T23:02:09.409Z,34.47
2018-05-08T23:04:38.858Z,34.50
2018-05-08T23:07:08.031Z,34.46
2018-05-08T23:09:37.035Z,34.43
2018-05-08T23:12:06.109Z,34.43
2018-05-08T23:14:35.946Z,34.38
2018-05-08T23:17:04.602Z,34.40
2018-05-08T23:19:34.127Z,34.41
2018-05-08T23:22:03.433Z,34.40
2018-05-08T23:24:32.856Z,34.41
2018-05-08T23:27:02.914Z,34.43
2018-05-08T23:29:32.409Z,34.40
2018-05-08T23:32:01.963Z,34.43
2018-05-08T23:34:31.663Z,34.46
2018-05-08T23:37:01.495Z,34.38
2018-05-08T23:39:31.161Z,34.42
2018-05-08T23:42:00.295Z,34.39
2018-05-08T23:44:29.566Z,34.33
2018-05-08T23:46:58.456Z,34.33
2018-05-08T23:49:28.207Z,34.31
2018-05-08T23:51:57.162Z,34.23
2018-05-08T23:54:26.188Z,34.20
2018-05-08T23:56:55.349Z,34.19
2018-05-08T23:59:24.462Z,34.18
